Time;durP1;ratioP1;P1;durP2;ratioP2;P2;SDS_P1;SDS_P2;PMS_P1;PMS_P2;Temp;Humidity;BMP_temperature;BMP_pressure;BME280_temperature;BME280_humidity;BME280_pressure;Samples;Min_cycle;Max_cycle;Signal;HPM_P1;HPM_P2
2021/10/04 00:00:59;;;;;;;18.88;15.35;;;;;;;16.67;65.79;100347.41;5044286;28;20056;-80
2021/10/04 00:03:25;;;;;;;16.55;13.52;;;;;;;16.70;65.59;100351.75;5044760;28;20030;-80
2021/10/04 00:05:50;;;;;;;18.50;14.88;;;;;;;16.72;65.94;100355.25;5044305;28;20041;-80
2021/10/04 00:08:15;;;;;;;17.50;14.10;;;;;;;16.70;65.93;100359.75;5043566;28;20546;-81
2021/10/04 00:10:41;;;;;;;17.42;14.00;;;;;;;16.61;66.49;100374.22;5045558;28;20025;-80
2021/10/04 00:13:06;;;;;;;15.90;13.95;;;;;;;16.62;65.95;100370.66;5038564;28;20538;-80
2021/10/04 00:15:32;;;;;;;18.55;14.25;;;;;;;16.63;66.36;100375.94;5047845;28;20041;-81
2021/10/04 00:17:58;;;;;;;17.63;13.63;;;;;;;16.60;66.22;100369.84;5047393;28;20037;-80
2021/10/04 00:20:26;;;;;;;18.10;13.80;;;;;;;16.62;66.13;100368.00;5048053;28;20049;-80
2021/10/04 00:22:52;;;;;;;17.50;14.70;;;;;;;16.63;65.97;100365.28;5025331;28;20061;-80
2021/10/04 00:25:18;;;;;;;19.73;14.75;;;;;;;16.64;66.08;100369.69;5043157;28;20033;-80
2021/10/04 00:27:43;;;;;;;17.50;13.43;;;;;;;16.61;66.66;100372.47;5052546;28;20403;-80
2021/10/04 00:30:10;;;;;;;17.05;13.43;;;;;;;16.60;66.36;100368.03;5047540;28;20514;-80
2021/10/04 00:32:39;;;;;;;22.10;14.02;;;;;;;16.64;66.36;100363.50;5046228;28;20033;-80
2021/10/04 00:35:05;;;;;;;17.77;14.88;;;;;;;16.68;66.29;100364.25;5043744;28;20025;-80
2021/10/04 00:37:31;;;;;;;20.63;15.27;;;;;;;16.70;66.15;100371.28;5042525;28;20034;-80
2021/10/04 00:39:57;;;;;;;16.25;14.25;;;;;;;16.71;66.04;100369.47;5037489;28;20030;-80
2021/10/04 00:42:22;;;;;;;19.98;14.10;;;;;;;16.73;66.16;100367.63;5046749;28;20037;-79
2021/10/04 00:44:49;;;;;;;17.92;13.98;;;;;;;16.74;66.24;100374.69;5046478;28;20037;-80
2021/10/04 00:47:15;;;;;;;17.60;14.00;;;;;;;16.79;66.24;100372.78;5046956;28;20044;-80
2021/10/04 00:49:41;;;;;;;16.30;13.15;;;;;;;16.81;66.41;100378.94;5047245;28;20033;-80
2021/10/04 00:52:07;;;;;;;16.92;14.32;;;;;;;16.81;66.15;100376.28;5029302;28;20072;-80
2021/10/04 00:54:32;;;;;;;17.55;14.07;;;;;;;16.80;66.62;100379.88;5045737;28;20094;-79
2021/10/04 00:56:57;;;;;;;18.45;14.52;;;;;;;16.76;66.80;100375.53;5045669;28;20033;-81
2021/10/04 00:59:23;;;;;;;15.85;14.05;;;;;;;16.75;66.86;100381.78;5043828;28;20037;-80
2021/10/04 01:01:48;;;;;;;16.55;13.65;;;;;;;16.74;66.45;100385.34;5042222;28;20033;-80
2021/10/04 01:04:13;;;;;;;16.13;13.30;;;;;;;16.74;66.87;100388.91;5046331;28;20060;-80
2021/10/04 01:06:39;;;;;;;16.58;13.23;;;;;;;16.68;67.33;100388.25;5047256;28;20049;-80
2021/10/04 01:09:04;;;;;;;18.10;14.52;;;;;;;16.65;67.39;100390.06;5046663;28;20033;-80
2021/10/04 01:11:30;;;;;;;16.65;12.00;;;;;;;16.71;67.22;100390.78;5045951;28;20038;-79
2021/10/04 01:13:55;;;;;;;17.42;13.57;;;;;;;16.70;67.19;100395.25;5045768;28;20090;-80
2021/10/04 01:16:21;;;;;;;17.30;13.57;;;;;;;16.71;67.34;100396.13;5046042;28;20037;-80
2021/10/04 01:18:46;;;;;;;18.48;14.57;;;;;;;16.71;67.22;100398.78;5045439;28;20092;-80
2021/10/04 01:21:12;;;;;;;16.42;14.10;;;;;;;16.71;67.26;100399.66;5046272;28;20044;-79
2021/10/04 01:23:38;;;;;;;17.15;14.10;;;;;;;16.72;67.83;100406.75;5050905;28;20040;-80
2021/10/04 01:26:03;;;;;;;17.58;14.20;;;;;;;16.71;67.96;100397.00;5045438;28;20045;-80
2021/10/04 01:28:29;;;;;;;15.32;13.00;;;;;;;16.71;67.78;100397.00;5045561;28;20124;-80
2021/10/04 01:30:54;;;;;;;16.45;13.10;;;;;;;16.71;68.23;100404.13;5036290;28;20084;-80
2021/10/04 01:33:20;;;;;;;14.27;12.75;;;;;;;16.71;67.91;100409.44;5044705;28;20038;-80
2021/10/04 01:35:45;;;;;;;15.75;13.00;;;;;;;16.72;67.97;100404.09;5045315;28;20041;-80
2021/10/04 01:38:11;;;;;;;17.80;13.65;;;;;;;16.70;67.74;100402.38;5045914;28;20093;-80
2021/10/04 01:40:39;;;;;;;17.13;14.05;;;;;;;16.68;68.61;100415.75;5036406;28;20045;-79
2021/10/04 01:43:06;;;;;;;16.27;13.38;;;;;;;16.64;68.49;100417.66;5045472;28;20029;-80
2021/10/04 01:45:31;;;;;;;17.23;12.93;;;;;;;16.60;69.17;100416.00;5043603;28;20056;-80
2021/10/04 01:48:01;;;;;;;17.20;13.05;;;;;;;16.59;69.07;100414.28;5044774;28;20040;-80
2021/10/04 01:50:32;;;;;;;16.73;13.88;;;;;;;16.61;69.36;100423.09;5026465;28;20049;-79
2021/10/04 01:52:57;;;;;;;14.02;12.38;;;;;;;16.61;68.99;100422.19;5044000;28;20511;-80
2021/10/04 01:55:22;;;;;;;15.38;12.90;;;;;;;16.61;69.10;100422.19;5027813;28;20041;-79
2021/10/04 01:57:48;;;;;;;24.10;14.50;;;;;;;16.61;68.89;100417.75;5045354;28;20048;-80
2021/10/04 02:00:16;;;;;;;19.45;15.43;;;;;;;16.53;69.25;100422.47;5044669;28;20060;-80
2021/10/04 02:02:44;;;;;;;16.85;13.70;;;;;;;16.46;69.77;100422.72;5043546;28;20033;-79
2021/10/04 02:05:10;;;;;;;16.90;13.02;;;;;;;16.44;69.73;100423.63;5045135;28;20033;-80
2021/10/04 02:07:37;;;;;;;16.95;13.80;;;;;;;16.48;69.92;100415.53;5044955;28;20040;-80
2021/10/04 02:10:15;;;;;;;15.77;12.25;;;;;;;16.49;70.18;100420.81;5043117;28;20553;-80
2021/10/04 02:12:41;;;;;;;17.67;15.23;;;;;;;16.41;70.09;100420.19;5049387;28;20044;-80
2021/10/04 02:15:07;;;;;;;18.30;15.70;;;;;;;16.32;71.22;100429.34;5049615;28;20101;-80
2021/10/04 02:17:34;;;;;;;15.77;13.38;;;;;;;16.25;71.57;100425.13;5048383;28;20057;-80
2021/10/04 02:19:59;;;;;;;17.77;13.63;;;;;;;16.20;71.39;100433.25;5048566;28;20045;-80
2021/10/04 02:22:25;;;;;;;18.35;14.65;;;;;;;16.16;71.68;100436.06;5012283;28;20182;-80
2021/10/04 02:24:50;;;;;;;16.45;14.13;;;;;;;16.07;72.21;100441.69;5045933;28;20036;-80
2021/10/04 02:27:15;;;;;;;15.10;12.10;;;;;;;16.08;72.18;100440.75;5046552;28;20117;-80
2021/10/04 02:29:41;;;;;;;16.52;13.45;;;;;;;16.12;71.90;100445.06;5037278;28;20101;-80
2021/10/04 02:32:07;;;;;;;15.50;12.05;;;;;;;16.12;72.34;100451.25;5045181;28;20312;-80
2021/10/04 02:34:33;;;;;;;17.98;14.02;;;;;;;16.14;72.36;100454.75;5028761;28;20041;-80
2021/10/04 02:36:58;;;;;;;16.48;12.35;;;;;;;16.14;72.58;100462.75;5036952;28;20040;-80
2021/10/04 02:39:24;;;;;;;16.15;12.30;;;;;;;16.09;73.29;100467.34;5043911;28;20033;-80
2021/10/04 02:41:49;;;;;;;16.67;13.85;;;;;;;16.06;73.09;100462.09;5040604;28;20221;-80
2021/10/04 02:44:14;;;;;;;17.40;12.80;;;;;;;16.06;73.20;100470.09;5045628;28;20087;-81
2021/10/04 02:46:40;;;;;;;15.65;12.23;;;;;;;16.02;73.37;100470.22;5043790;28;20088;-80
2021/10/04 02:49:05;;;;;;;17.05;13.38;;;;;;;16.04;73.09;100469.25;5044704;28;20045;-81
2021/10/04 02:51:31;;;;;;;15.65;12.68;;;;;;;16.09;73.48;100471.78;5044768;28;20100;-80
2021/10/04 02:53:56;;;;;;;16.70;12.77;;;;;;;16.18;73.30;100471.50;5026139;28;20025;-79
2021/10/04 02:56:21;;;;;;;15.35;12.02;;;;;;;16.17;73.31;100480.41;5041779;28;20127;-80
2021/10/04 02:58:47;;;;;;;13.85;11.05;;;;;;;16.20;73.54;100480.31;5045147;28;20040;-81
2021/10/04 03:01:12;;;;;;;13.13;11.02;;;;;;;16.25;73.71;100467.75;5045229;28;20045;-81
2021/10/04 03:03:37;;;;;;;12.35;10.50;;;;;;;16.35;73.44;100465.69;5043339;28;20100;-80
2021/10/04 03:06:03;;;;;;;13.23;11.32;;;;;;;16.42;72.98;100470.72;5043051;28;20037;-81
2021/10/04 03:08:28;;;;;;;14.05;11.27;;;;;;;16.47;72.85;100470.59;5044624;28;20045;-80
2021/10/04 03:10:53;;;;;;;13.30;10.93;;;;;;;16.51;73.21;100472.25;5045508;28;20053;-81
2021/10/04 03:13:19;;;;;;;15.15;13.00;;;;;;;16.52;73.63;100476.66;5043755;28;20042;-81
2021/10/04 03:15:44;;;;;;;14.23;11.73;;;;;;;16.48;73.85;100480.34;5043468;28;20079;-81
2021/10/04 03:18:11;;;;;;;16.63;13.13;;;;;;;16.41;74.30;100485.00;5044677;28;20037;-80
2021/10/04 03:20:37;;;;;;;17.92;12.25;;;;;;;16.37;74.35;100490.44;5043552;28;20033;-80
2021/10/04 03:23:05;;;;;;;13.25;10.50;;;;;;;16.39;74.35;100504.59;5044220;28;20052;-80
2021/10/04 03:25:30;;;;;;;12.00;10.18;;;;;;;16.40;74.14;100511.66;5040877;28;20029;-79
2021/10/04 03:27:56;;;;;;;15.38;11.15;;;;;;;16.43;74.35;100512.47;5044322;28;20473;-79
2021/10/04 03:30:21;;;;;;;14.25;11.10;;;;;;;16.40;74.49;100504.56;5035231;28;20542;-80
2021/10/04 03:32:48;;;;;;;13.75;11.38;;;;;;;16.40;74.82;100511.66;5008596;28;20385;-79
2021/10/04 03:35:14;;;;;;;12.93;10.55;;;;;;;16.39;74.78;100509.94;5040467;28;20061;-79
2021/10/04 03:37:40;;;;;;;16.92;10.40;;;;;;;16.42;75.01;100517.81;5027182;28;20029;-80
2021/10/04 03:40:06;;;;;;;11.55;9.38;;;;;;;16.40;75.10;100519.66;5026037;28;20061;-80
2021/10/04 03:42:32;;;;;;;11.43;9.43;;;;;;;16.38;75.23;100526.84;5025552;28;20029;-80
2021/10/04 03:44:57;;;;;;;12.60;8.70;;;;;;;16.34;75.28;100535.81;5052533;28;20035;-80
2021/10/04 03:47:23;;;;;;;13.95;10.75;;;;;;;16.35;75.73;100532.25;5038982;28;20044;-80
2021/10/04 03:49:48;;;;;;;13.25;10.40;;;;;;;16.37;75.79;100527.75;5026507;28;20035;-81
2021/10/04 03:52:13;;;;;;;11.38;8.80;;;;;;;16.39;75.32;100520.56;5041664;28;20655;-81
2021/10/04 03:54:39;;;;;;;10.38;8.27;;;;;;;16.43;75.15;100531.09;5041014;28;20033;-81
2021/10/04 03:57:04;;;;;;;11.00;9.30;;;;;;;16.43;75.51;100543.56;5023912;28;20114;-80
2021/10/04 03:59:30;;;;;;;12.90;8.55;;;;;;;16.42;75.47;100547.13;5040796;28;20049;-80
2021/10/04 04:01:55;;;;;;;9.70;8.15;;;;;;;16.40;76.05;100554.28;5039791;28;20093;-80
2021/10/04 04:04:20;;;;;;;12.07;8.70;;;;;;;16.37;75.91;100551.72;5039629;28;20045;-81
2021/10/04 04:06:46;;;;;;;8.98;6.45;;;;;;;16.39;75.90;100557.88;5046639;28;20064;-81
2021/10/04 04:09:11;;;;;;;8.98;6.82;;;;;;;16.44;75.78;100558.59;5045799;28;20033;-80
2021/10/04 04:11:36;;;;;;;8.90;6.57;;;;;;;16.45;75.48;100563.00;5046581;28;20056;-81
2021/10/04 04:14:03;;;;;;;9.27;7.15;;;;;;;16.47;75.67;100562.97;5031023;28;20040;-81
2021/10/04 04:16:29;;;;;;;9.70;6.60;;;;;;;16.44;75.67;100570.13;5046792;28;20399;-81
2021/10/04 04:18:54;;;;;;;9.07;6.88;;;;;;;16.43;75.75;100578.19;5047552;28;20060;-81
2021/10/04 04:21:19;;;;;;;7.60;6.00;;;;;;;16.40;76.33;100575.59;5029671;28;20045;-81
2021/10/04 04:23:45;;;;;;;8.48;5.90;;;;;;;16.40;76.33;100579.16;5045211;28;20060;-81
2021/10/04 04:26:10;;;;;;;9.27;6.05;;;;;;;16.41;76.10;100575.56;5042932;28;20037;-80
2021/10/04 04:28:36;;;;;;;7.88;5.60;;;;;;;16.43;76.36;100580.84;5045288;28;20036;-80
2021/10/04 04:31:01;;;;;;;9.55;6.07;;;;;;;16.48;76.11;100583.34;5031853;28;20071;-80
2021/10/04 04:33:27;;;;;;;9.45;5.95;;;;;;;16.44;76.66;100595.91;5033914;28;20040;-80
2021/10/04 04:35:52;;;;;;;7.45;5.53;;;;;;;16.41;76.29;100588.88;5042527;28;20025;-80
2021/10/04 04:38:18;;;;;;;8.98;5.75;;;;;;;16.39;76.66;100597.81;5039023;28;20049;-80
2021/10/04 04:40:43;;;;;;;7.93;5.68;;;;;;;16.32;77.45;100598.91;5043552;28;20475;-81
2021/10/04 04:43:09;;;;;;;7.45;5.65;;;;;;;16.30;77.54;100608.75;5043152;28;20041;-81
2021/10/04 04:45:34;;;;;;;7.85;5.03;;;;;;;16.29;77.65;100622.97;5045730;28;20032;-81
2021/10/04 04:48:00;;;;;;;7.15;4.90;;;;;;;16.31;77.73;100621.16;5045621;28;20040;-81
2021/10/04 04:50:25;;;;;;;7.95;5.38;;;;;;;16.28;78.12;100610.59;5048031;28;20115;-81
2021/10/04 04:52:51;;;;;;;6.75;5.28;;;;;;;16.32;77.89;100606.91;5042118;28;20061;-81
2021/10/04 04:55:17;;;;;;;6.82;5.05;;;;;;;16.35;77.76;100614.81;5044435;28;20033;-82
2021/10/04 04:57:42;;;;;;;6.90;4.30;;;;;;;16.34;78.41;100616.59;5046646;28;20037;-81
2021/10/04 05:00:09;;;;;;;5.80;4.28;;;;;;;16.33;78.70;100625.50;5037497;28;20187;-81
2021/10/04 05:02:37;;;;;;;7.25;4.80;;;;;;;16.32;78.93;100637.09;5042756;28;20129;-81
2021/10/04 05:05:08;;;;;;;6.60;4.03;;;;;;;16.32;78.70;100633.53;5025642;28;20045;-81
2021/10/04 05:07:33;;;;;;;5.93;4.10;;;;;;;16.31;78.67;100639.78;5042222;28;20123;-81
2021/10/04 05:09:59;;;;;;;5.55;4.30;;;;;;;16.30;79.22;100643.38;5046822;28;20033;-80
2021/10/04 05:12:25;;;;;;;6.05;4.70;;;;;;;16.31;79.21;100637.13;5047158;28;20123;-81
2021/10/04 05:14:50;;;;;;;7.85;4.28;;;;;;;16.33;78.86;100635.28;5046203;28;20484;-80
2021/10/04 05:17:15;;;;;;;7.25;4.85;;;;;;;16.30;79.15;100622.94;5046184;28;20037;-81
2021/10/04 05:19:41;;;;;;;8.32;5.32;;;;;;;16.27;79.57;100635.44;5044392;28;20060;-81
2021/10/04 05:22:06;;;;;;;7.85;4.93;;;;;;;16.24;79.70;100630.22;5044453;28;20045;-81
2021/10/04 05:24:31;;;;;;;8.18;4.65;;;;;;;16.22;79.72;100643.59;5043427;28;20092;-81
2021/10/04 05:26:57;;;;;;;6.65;4.18;;;;;;;16.26;79.44;100644.38;5043330;28;20036;-81
2021/10/04 05:29:23;;;;;;;6.25;3.55;;;;;;;16.26;79.68;100655.03;5040842;28;20033;-81
2021/10/04 05:31:49;;;;;;;5.35;3.95;;;;;;;16.26;79.53;100649.69;5044896;28;20056;-81
2021/10/04 05:34:15;;;;;;;5.05;3.70;;;;;;;16.25;79.49;100655.94;5046218;28;20041;-81
2021/10/04 05:36:40;;;;;;;7.80;4.10;;;;;;;16.23;79.77;100665.75;5054216;28;20038;-81
2021/10/04 05:39:05;;;;;;;4.53;3.47;;;;;;;16.20;79.56;100662.25;5037469;28;20060;-81
2021/10/04 05:41:31;;;;;;;4.93;3.08;;;;;;;16.24;79.47;100656.84;5078981;22;20105;-81
2021/10/04 05:43:56;;;;;;;7.95;3.53;;;;;;;16.27;79.28;100656.75;5060654;28;20032;-81
2021/10/04 05:46:21;;;;;;;4.88;3.22;;;;;;;16.30;79.35;100662.03;5057272;28;20101;-81
2021/10/04 05:48:47;;;;;;;6.20;3.58;;;;;;;16.30;79.08;100659.34;5077725;28;20093;-81
2021/10/04 05:51:12;;;;;;;5.85;3.60;;;;;;;16.37;78.63;100648.50;5075801;28;20043;-82
2021/10/04 05:53:38;;;;;;;5.05;3.40;;;;;;;16.42;78.71;100653.66;5056727;28;20044;-81
2021/10/04 05:56:03;;;;;;;4.85;3.20;;;;;;;16.41;78.47;100659.91;5056646;28;20087;-81
2021/10/04 05:58:29;;;;;;;5.68;3.20;;;;;;;16.40;78.74;100663.47;5056633;28;20024;-81
2021/10/04 06:00:54;;;;;;;4.55;3.10;;;;;;;16.37;78.86;100676.88;5050668;28;20056;-81
2021/10/04 06:03:20;;;;;;;4.35;3.22;;;;;;;16.38;78.87;100682.19;5055202;28;20040;-81
2021/10/04 06:05:45;;;;;;;5.38;3.15;;;;;;;16.39;78.67;100673.28;5059027;28;20041;-81
2021/10/04 06:08:10;;;;;;;5.15;2.70;;;;;;;16.46;78.55;100671.31;5060369;28;20049;-81
2021/10/04 06:10:36;;;;;;;4.78;3.03;;;;;;;16.54;78.26;100682.63;5054531;28;20034;-81
2021/10/04 06:13:02;;;;;;;6.10;3.22;;;;;;;16.59;77.85;100687.84;5056095;28;20073;-81
2021/10/04 06:15:27;;;;;;;5.07;3.20;;;;;;;16.53;77.79;100691.56;5060723;28;20032;-81
2021/10/04 06:17:53;;;;;;;3.80;2.40;;;;;;;16.58;77.12;100694.06;5057655;28;20119;-81
2021/10/04 06:20:19;;;;;;;3.97;2.47;;;;;;;16.62;76.37;100691.28;5055407;28;20068;-81
2021/10/04 06:22:44;;;;;;;7.65;3.70;;;;;;;16.55;76.53;100695.03;5055494;28;20033;-81
2021/10/04 06:25:12;;;;;;;5.00;2.47;;;;;;;16.60;76.09;100687.78;5038512;28;20063;-81
2021/10/04 06:27:37;;;;;;;4.15;2.10;;;;;;;16.61;73.35;100689.53;5055323;28;20037;-81
2021/10/04 06:30:05;;;;;;;4.90;1.63;;;;;;;16.62;73.25;100688.59;5038134;28;20051;-81
2021/10/04 06:32:30;;;;;;;4.50;2.10;;;;;;;16.67;72.23;100695.63;5035666;28;20060;-81
2021/10/04 06:34:55;;;;;;;3.35;1.55;;;;;;;16.73;72.31;100711.41;5057176;28;20495;-81
2021/10/04 06:37:21;;;;;;;3.13;1.52;;;;;;;16.76;70.52;100725.53;5052629;28;20057;-81
2021/10/04 06:39:46;;;;;;;3.05;1.63;;;;;;;16.60;70.54;100738.41;5057933;28;20103;-81
2021/10/04 06:42:11;;;;;;;2.08;1.05;;;;;;;16.65;68.41;100744.47;5059323;28;20029;-81
2021/10/04 06:44:37;;;;;;;2.72;1.08;;;;;;;16.68;66.55;100742.66;5051493;28;20040;-81
2021/10/04 06:47:03;;;;;;;3.50;1.30;;;;;;;16.73;65.83;100743.41;5050916;28;20040;-81
2021/10/04 06:49:29;;;;;;;2.75;0.90;;;;;;;16.80;66.04;100742.34;5037829;28;20052;-81
2021/10/04 06:51:54;;;;;;;2.22;0.90;;;;;;;16.88;64.91;100744.78;5054482;28;20036;-81
2021/10/04 06:54:19;;;;;;;2.17;0.90;;;;;;;16.90;64.58;100751.84;5055359;28;20033;-81
2021/10/04 06:56:44;;;;;;;2.00;0.75;;;;;;;16.88;64.00;100751.00;5039296;28;20098;-81
2021/10/04 06:59:10;;;;;;;2.55;0.90;;;;;;;16.83;64.03;100743.13;5049498;28;20052;-81
2021/10/04 07:01:35;;;;;;;1.45;0.70;;;;;;;16.74;64.79;100743.38;5053724;28;20033;-81
2021/10/04 07:04:04;;;;;;;1.90;0.50;;;;;;;16.75;64.31;100745.09;5055769;28;20044;-81
2021/10/04 07:06:31;;;;;;;1.05;0.55;;;;;;;16.77;63.71;100732.66;5036396;28;20045;-81
2021/10/04 07:08:57;;;;;;;2.65;0.60;;;;;;;16.93;63.56;100743.75;5056647;28;20048;-81
2021/10/04 07:11:22;;;;;;;1.27;0.50;;;;;;;16.98;62.94;100747.16;5032479;28;20029;-82
2021/10/04 07:13:49;;;;;;;1.60;0.50;;;;;;;17.00;62.17;100742.66;5034689;28;20034;-81
2021/10/04 07:16:15;;;;;;;1.25;0.50;;;;;;;16.96;62.05;100751.66;5052310;28;20076;-81
2021/10/04 07:18:41;;;;;;;1.73;0.65;;;;;;;16.90;62.62;100754.50;5056394;28;20033;-81
2021/10/04 07:21:08;;;;;;;2.50;0.75;;;;;;;16.90;61.99;100765.16;5038894;28;20044;-81
2021/10/04 07:23:33;;;;;;;1.67;0.60;;;;;;;16.84;61.48;100763.53;5060431;28;20395;-81
2021/10/04 07:25:59;;;;;;;2.30;0.82;;;;;;;16.89;62.09;100758.06;5062137;28;20035;-81
2021/10/04 07:28:24;;;;;;;3.03;0.80;;;;;;;16.86;61.61;100763.50;5062542;28;20044;-82
2021/10/04 07:30:49;;;;;;;2.67;0.82;;;;;;;16.95;61.33;100781.91;5058899;28;20727;-81
2021/10/04 07:33:15;;;;;;;1.38;0.60;;;;;;;17.00;61.29;100785.31;5057475;28;20480;-81
2021/10/04 07:35:40;;;;;;;0.68;0.45;;;;;;;17.05;60.34;100786.03;5059605;28;20079;-81
2021/10/04 07:38:05;;;;;;;1.10;0.30;;;;;;;16.87;59.97;100783.88;5058201;28;20052;-81
2021/10/04 07:40:31;;;;;;;1.20;0.40;;;;;;;16.88;60.81;100795.44;5060772;28;20088;-81
2021/10/04 07:42:56;;;;;;;0.90;0.40;;;;;;;17.01;60.64;100799.50;5051576;28;20057;-81
2021/10/04 07:45:22;;;;;;;0.90;0.50;;;;;;;17.16;61.27;100806.19;5043452;28;20025;-81
2021/10/04 07:47:47;;;;;;;1.40;0.32;;;;;;;17.21;60.09;100801.59;5060829;28;20041;-82
2021/10/04 07:50:16;;;;;;;1.35;0.22;;;;;;;17.35;60.03;100809.22;5040061;28;20029;-81
2021/10/04 07:52:43;;;;;;;0.57;0.30;;;;;;;17.27;59.66;100807.63;5060210;28;20043;-81
2021/10/04 07:55:09;;;;;;;1.20;0.40;;;;;;;17.29;59.56;100813.81;5038900;28;20044;-82
2021/10/04 07:57:35;;;;;;;0.43;0.22;;;;;;;17.37;59.69;100813.56;5059376;28;20471;-81
2021/10/04 08:00:00;;;;;;;0.40;0.20;;;;;;;17.44;59.17;100816.91;5057450;28;20059;-81
2021/10/04 08:02:26;;;;;;;0.65;0.25;;;;;;;17.43;58.72;100820.53;5065441;28;20041;-81
2021/10/04 08:04:51;;;;;;;2.45;0.20;;;;;;;17.46;59.55;100818.63;5058701;28;20037;-81
2021/10/04 08:07:17;;;;;;;1.00;0.30;;;;;;;17.31;58.58;100824.41;5036578;28;20029;-81
2021/10/04 08:09:42;;;;;;;0.40;0.22;;;;;;;17.39;59.24;100833.06;5057942;28;20045;-81
2021/10/04 08:12:08;;;;;;;0.47;0.20;;;;;;;17.34;59.46;100832.31;5040989;28;20036;-81
2021/10/04 08:14:35;;;;;;;0.75;0.20;;;;;;;17.47;59.28;100833.69;5036010;28;20033;-81
2021/10/04 08:17:01;;;;;;;1.05;0.40;;;;;;;17.42;59.51;100832.09;5044972;28;20064;-81
2021/10/04 08:19:27;;;;;;;0.88;0.20;;;;;;;17.51;59.27;100842.50;5035564;28;20037;-81
2021/10/04 08:21:53;;;;;;;0.70;0.20;;;;;;;17.43;59.49;100834.72;5061952;28;20045;-81
2021/10/04 08:24:18;;;;;;;0.50;0.20;;;;;;;17.47;59.04;100848.84;5062387;28;20029;-81
2021/10/04 08:26:44;;;;;;;1.80;0.60;;;;;;;17.39;58.85;100857.06;5059428;28;20391;-81
2021/10/04 08:29:09;;;;;;;1.40;1.20;;;;;;;17.46;58.81;100865.78;5056285;28;20044;-81
2021/10/04 08:31:35;;;;;;;1.00;0.30;;;;;;;17.45;59.06;100866.72;5056945;28;20487;-81
2021/10/04 08:34:03;;;;;;;0.65;0.30;;;;;;;17.66;58.87;100863.41;5042099;28;20055;-81
2021/10/04 08:36:29;;;;;;;1.38;0.30;;;;;;;17.84;58.67;100859.34;5040155;28;20042;-81
2021/10/04 08:38:54;;;;;;;0.30;0.20;;;;;;;17.83;57.97;100860.25;5058209;28;20037;-81
2021/10/04 08:41:21;;;;;;;0.98;0.47;;;;;;;17.91;57.93;100852.84;5056975;28;20040;-81
2021/10/04 08:43:53;;;;;;;0.52;0.22;;;;;;;18.04;57.38;100847.13;5057635;28;20021;-81
2021/10/04 08:46:19;;;;;;;3.67;0.40;;;;;;;18.07;57.01;100858.59;5056329;28;20614;-81
2021/10/04 08:48:46;;;;;;;0.80;0.35;;;;;;;18.09;57.10;100861.22;5057133;28;20037;-81
2021/10/04 08:51:12;;;;;;;0.77;0.38;;;;;;;18.16;57.06;100852.09;5038485;28;20064;-81
2021/10/04 08:53:41;;;;;;;0.80;0.30;;;;;;;18.21;56.25;100850.16;5057423;28;20040;-81
2021/10/04 08:56:07;;;;;;;3.38;0.60;;;;;;;18.25;56.10;100857.13;5058585;28;20057;-81
2021/10/04 08:58:35;;;;;;;0.40;0.30;;;;;;;18.18;57.10;100850.22;5063299;28;20036;-81
2021/10/04 09:01:02;;;;;;;0.82;0.40;;;;;;;18.33;56.56;100849.72;5044532;28;20051;-81
2021/10/04 09:03:45;;;;;;;0.73;0.38;;;;;;;18.48;56.12;100843.00;5059076;28;20030;-82
2021/10/04 09:06:26;;;;;;;1.40;0.40;;;;;;;18.71;55.70;100838.69;5070264;22;20106;-78
2021/10/04 09:08:57;;;;;;;1.15;0.30;;;;;;;18.77;55.78;100830.47;5059543;28;20123;-78
2021/10/04 09:11:36;;;;;;;0.93;0.30;;;;;;;18.76;54.69;100842.97;5063086;28;20123;-78
2021/10/04 09:14:15;;;;;;;1.20;0.30;;;;;;;18.78;55.56;100846.44;5062800;28;20037;-78
2021/10/04 09:16:49;;;;;;;0.82;0.47;;;;;;;18.72;55.37;100837.75;5050251;28;20069;-78
2021/10/04 09:19:20;;;;;;;0.95;0.40;;;;;;;18.86;54.88;100850.66;5050014;28;20080;-78
2021/10/04 09:22:12;;;;;;;0.77;0.30;;;;;;;18.87;54.69;100860.44;5044420;28;20140;-78
2021/10/04 09:24:42;;;;;;;1.40;0.40;;;;;;;18.98;54.99;100868.94;5042271;28;20041;-77
2021/10/04 09:27:22;;;;;;;1.02;0.32;;;;;;;18.94;54.94;100870.88;5044570;28;20111;-78
2021/10/04 09:29:49;;;;;;;1.15;0.40;;;;;;;18.86;55.67;100872.03;5044530;28;20033;-78
2021/10/04 09:32:22;;;;;;;1.30;0.40;;;;;;;18.81;54.54;100882.88;5042977;28;20407;-78
2021/10/04 09:34:47;;;;;;;1.05;0.30;;;;;;;18.59;54.78;100882.72;5043455;28;20043;-78
2021/10/04 09:37:24;;;;;;;0.57;0.32;;;;;;;18.49;55.68;100890.16;5050769;28;20041;-78
2021/10/04 09:39:51;;;;;;;1.45;0.30;;;;;;;18.62;55.32;100882.63;5045378;28;20040;-78
2021/10/04 09:42:18;;;;;;;1.02;0.30;;;;;;;18.79;54.67;100874.94;5041381;28;20068;-78
2021/10/04 09:45:00;;;;;;;1.70;0.47;;;;;;;18.69;54.43;100878.81;5044171;28;20120;-78
2021/10/04 09:47:37;;;;;;;1.15;0.40;;;;;;;18.57;55.05;100881.91;5046129;28;20063;-78
2021/10/04 09:50:11;;;;;;;1.20;0.40;;;;;;;18.71;55.24;100876.09;5043730;28;20158;-78
2021/10/04 09:52:47;;;;;;;1.27;0.40;;;;;;;18.63;55.24;100879.03;5044455;28;20041;-78
2021/10/04 09:55:33;;;;;;;1.30;0.40;;;;;;;18.75;54.61;100875.09;5040531;28;20549;-78
2021/10/04 09:58:15;;;;;;;1.92;0.68;;;;;;;18.72;55.69;100869.81;5041960;28;20045;-78
2021/10/04 10:00:53;;;;;;;;;;;;;;;18.69;55.01;100860.09;5045988;28;20429;-77
2021/10/04 10:03:22;;;;;;;1.08;0.30;;;;;;;18.66;54.97;100878.94;5029890;28;19917;-76
2021/10/04 10:05:55;;;;;;;1.25;0.30;;;;;;;18.46;55.07;100873.38;5046093;28;20037;-75
2021/10/04 10:08:25;;;;;;;2.35;0.45;;;;;;;18.27;55.27;100871.31;5046267;28;20045;-76
2021/10/04 10:10:54;;;;;;;1.67;0.50;;;;;;;18.27;54.90;100875.78;5052072;28;20466;-76
2021/10/04 10:13:24;;;;;;;2.00;0.65;;;;;;;18.21;55.87;100867.94;5042987;28;20083;-76
2021/10/04 10:16:02;;;;;;;1.83;0.40;;;;;;;18.47;54.16;100869.75;5044738;28;20028;-76
2021/10/04 10:18:49;;;;;;;2.88;0.60;;;;;;;18.64;54.08;100880.78;5031104;28;20028;-76
2021/10/04 10:21:24;;;;;;;1.52;0.50;;;;;;;18.46;55.37;100876.03;5025673;28;20124;-75
2021/10/04 10:23:55;;;;;;;1.70;0.40;;;;;;;18.39;53.59;100892.28;5040044;28;20120;-76
2021/10/04 10:26:56;;;;;;;0.80;0.30;;;;;;;18.29;53.68;100882.81;5042284;28;20045;-76
2021/10/04 10:29:24;;;;;;;1.60;0.50;;;;;;;18.52;52.86;100886.53;5026082;28;20041;-76
2021/10/04 10:31:50;;;;;;;0.93;0.40;;;;;;;18.80;52.49;100886.50;5022218;28;20033;-76
2021/10/04 10:34:24;;;;;;;1.60;0.60;;;;;;;18.80;52.40;100890.03;5038475;28;20091;-76
2021/10/04 10:37:15;;;;;;;1.83;0.50;;;;;;;18.65;52.05;100887.00;5040494;28;20045;-76
2021/10/04 10:39:44;;;;;;;2.35;0.90;;;;;;;18.51;52.53;100895.47;5047937;28;20037;-76
2021/10/04 10:42:15;;;;;;;1.90;0.65;;;;;;;18.51;52.88;100899.00;5044375;28;20057;-76
2021/10/04 10:44:55;;;;;;;2.45;0.70;;;;;;;18.52;51.94;100902.56;5040961;28;20480;-76
2021/10/04 10:47:33;;;;;;;0.80;0.30;;;;;;;18.34;52.05;100910.28;5044025;28;20341;-76
2021/10/04 10:49:59;;;;;;;1.27;0.40;;;;;;;18.24;52.27;100911.50;5045899;28;20120;-76
2021/10/04 10:52:28;;;;;;;1.65;0.50;;;;;;;18.06;52.72;100904.91;5018539;28;20021;-76
2021/10/04 10:54:54;;;;;;;0.98;0.32;;;;;;;18.16;52.76;100901.03;5039480;28;20044;-76
2021/10/04 10:57:22;;;;;;;1.23;0.40;;;;;;;18.25;52.89;100910.56;5042740;28;20044;-76
2021/10/04 11:00:14;;;;;;;0.93;0.30;;;;;;;18.20;52.53;100914.31;5039391;28;20037;-76
2021/10/04 11:02:51;;;;;;;1.52;0.30;;;;;;;18.13;52.40;100914.50;5039762;28;20095;-76
2021/10/04 11:05:34;;;;;;;1.00;0.40;;;;;;;18.05;52.64;100908.53;5042954;28;20043;-76
2021/10/04 11:08:00;;;;;;;1.75;0.40;;;;;;;18.04;52.89;100901.41;5046243;28;20388;-76
2021/10/04 11:10:26;;;;;;;2.53;0.70;;;;;;;18.06;52.40;100898.72;5043460;28;20025;-76
2021/10/04 11:13:06;;;;;;;1.77;0.57;;;;;;;18.05;52.94;100913.88;5022576;28;20542;-76
2021/10/04 11:15:32;;;;;;;2.35;0.75;;;;;;;17.89;52.84;100924.16;5021148;28;20575;-76
2021/10/04 11:17:57;;;;;;;3.08;0.70;;;;;;;17.75;54.73;100931.66;5042708;28;20111;-76
2021/10/04 11:20:23;;;;;;;1.77;0.68;;;;;;;17.74;54.72;100929.91;5047979;28;20048;-76